Pagrindinis puslapis
METAR-TAF:

METAR-TAF

Oro uostai :

Santjagas, Čilė

platuma: 33-27-23S, ilguma: 070-32-48W, Aukštis: 646 m

Dabartinis oras

Ataskaita buvo paskelbta 23 minutes, ne 20:00 UTC
Vėjas 7 kt iš Pietvakarių
Temperatūra 27°C
Drėgmė 17%
Slėgis 1016 hPa
Matomumas 10 km arba daugiau
nėra debesų žemiau 1500 m ir nėra kamuolinių lietaus debesų

METAR: SCTB 222000Z 22007KT CAVOK 27/M00 Q1016

Laikas: 17:23 (20:23 UTC)


TAF: trūkstamas

Orai ataskaitas ir orų prognozės (METAR, TAF).

turimą stotys yra geltonos ir raudonos taškus žemėlapyje.

Perkelti pele per norėdami pamatyti stoties vardą.

Tada spustelėkite, norėdami matyti oro stebėjimo ir prognozės.

Norėdami pakeisti žemėlapį: spustelėkite ant žalios mygtukų su juodo kryžiaus žemyn,; žalią mygtuką su brūkšneliu, jei norite nutolinti; arba žalių rodyklių gretimoms žemėlapius.


METAR-TAF: